sensor_id;sensor_type;location;lat;lon;timestamp;P1;durP1;ratioP1;P2;durP2;ratioP2
28431;SDS011;15664;51.302;7.744;2022-10-17T00:00:54;8.88;;;4.38;;
28431;SDS011;15664;51.302;7.744;2022-10-17T00:03:19;10.40;;;4.53;;
28431;SDS011;15664;51.302;7.744;2022-10-17T00:05:45;9.87;;;4.13;;
28431;SDS011;15664;51.302;7.744;2022-10-17T00:08:12;9.25;;;4.60;;
28431;SDS011;15664;51.302;7.744;2022-10-17T00:10:38;8.17;;;4.13;;
28431;SDS011;15664;51.302;7.744;2022-10-17T00:13:05;9.30;;;4.53;;
28431;SDS011;15664;51.302;7.744;2022-10-17T00:15:31;9.25;;;4.03;;
28431;SDS011;15664;51.302;7.744;2022-10-17T00:17:56;8.67;;;4.00;;
28431;SDS011;15664;51.302;7.744;2022-10-17T00:20:22;8.70;;;4.03;;
28431;SDS011;15664;51.302;7.744;2022-10-17T00:22:47;9.10;;;4.00;;
28431;SDS011;15664;51.302;7.744;2022-10-17T00:25:13;8.43;;;3.77;;
28431;SDS011;15664;51.302;7.744;2022-10-17T00:27:39;8.27;;;4.27;;
28431;SDS011;15664;51.302;7.744;2022-10-17T00:30:08;8.83;;;4.47;;
28431;SDS011;15664;51.302;7.744;2022-10-17T00:32:35;11.23;;;4.72;;
28431;SDS011;15664;51.302;7.744;2022-10-17T00:35:01;11.45;;;4.65;;
28431;SDS011;15664;51.302;7.744;2022-10-17T00:37:27;8.00;;;4.27;;
28431;SDS011;15664;51.302;7.744;2022-10-17T00:39:54;11.30;;;4.50;;
28431;SDS011;15664;51.302;7.744;2022-10-17T00:42:19;9.10;;;4.90;;
28431;SDS011;15664;51.302;7.744;2022-10-17T00:47:13;13.27;;;4.30;;
28431;SDS011;15664;51.302;7.744;2022-10-17T00:49:41;10.30;;;3.97;;
28431;SDS011;15664;51.302;7.744;2022-10-17T00:52:07;7.97;;;4.43;;
28431;SDS011;15664;51.302;7.744;2022-10-17T00:54:39;9.07;;;4.63;;
28431;SDS011;15664;51.302;7.744;2022-10-17T00:57:12;8.30;;;4.33;;
28431;SDS011;15664;51.302;7.744;2022-10-17T00:59:38;7.60;;;4.47;;
28431;SDS011;15664;51.302;7.744;2022-10-17T01:02:07;8.32;;;4.05;;
28431;SDS011;15664;51.302;7.744;2022-10-17T01:04:35;10.25;;;4.60;;
28431;SDS011;15664;51.302;7.744;2022-10-17T01:07:02;8.95;;;4.40;;
28431;SDS011;15664;51.302;7.744;2022-10-17T01:09:28;11.03;;;4.73;;
28431;SDS011;15664;51.302;7.744;2022-10-17T01:12:09;9.77;;;4.17;;
28431;SDS011;15664;51.302;7.744;2022-10-17T01:14:42;8.77;;;4.28;;
28431;SDS011;15664;51.302;7.744;2022-10-17T01:20:28;10.57;;;4.43;;
28431;SDS011;15664;51.302;7.744;2022-10-17T01:29:00;11.90;;;5.60;;
28431;SDS011;15664;51.302;7.744;2022-10-17T01:31:38;8.20;;;3.83;;
28431;SDS011;15664;51.302;7.744;2022-10-17T01:34:13;8.55;;;4.55;;
28431;SDS011;15664;51.302;7.744;2022-10-17T01:36:48;9.57;;;3.88;;
28431;SDS011;15664;51.302;7.744;2022-10-17T01:39:21;10.27;;;4.47;;
28431;SDS011;15664;51.302;7.744;2022-10-17T01:41:54;7.47;;;3.83;;
28431;SDS011;15664;51.302;7.744;2022-10-17T01:44:28;8.15;;;3.90;;
28431;SDS011;15664;51.302;7.744;2022-10-17T01:47:06;10.27;;;3.97;;
28431;SDS011;15664;51.302;7.744;2022-10-17T01:49:36;9.48;;;4.00;;
28431;SDS011;15664;51.302;7.744;2022-10-17T01:52:09;11.17;;;4.10;;
28431;SDS011;15664;51.302;7.744;2022-10-17T01:54:44;8.32;;;4.28;;
28431;SDS011;15664;51.302;7.744;2022-10-17T01:57:24;10.38;;;4.07;;
28431;SDS011;15664;51.302;7.744;2022-10-17T01:59:53;9.88;;;4.60;;
28431;SDS011;15664;51.302;7.744;2022-10-17T02:02:20;14.70;;;4.10;;
28431;SDS011;15664;51.302;7.744;2022-10-17T02:04:48;8.67;;;3.80;;
28431;SDS011;15664;51.302;7.744;2022-10-17T02:07:15;12.43;;;4.22;;
28431;SDS011;15664;51.302;7.744;2022-10-17T02:09:41;10.43;;;4.40;;
28431;SDS011;15664;51.302;7.744;2022-10-17T02:15:17;10.23;;;4.43;;
28431;SDS011;15664;51.302;7.744;2022-10-17T02:17:57;10.38;;;4.35;;
28431;SDS011;15664;51.302;7.744;2022-10-17T02:20:36;8.93;;;4.45;;
28431;SDS011;15664;51.302;7.744;2022-10-17T02:23:19;9.37;;;4.07;;
28431;SDS011;15664;51.302;7.744;2022-10-17T02:26:05;8.68;;;4.22;;
28431;SDS011;15664;51.302;7.744;2022-10-17T02:28:53;10.55;;;4.35;;
28431;SDS011;15664;51.302;7.744;2022-10-17T02:34:23;8.60;;;4.07;;
28431;SDS011;15664;51.302;7.744;2022-10-17T02:36:55;9.03;;;4.20;;
28431;SDS011;15664;51.302;7.744;2022-10-17T02:39:24;7.22;;;4.20;;
28431;SDS011;15664;51.302;7.744;2022-10-17T02:41:54;7.45;;;4.07;;
28431;SDS011;15664;51.302;7.744;2022-10-17T02:44:21;9.48;;;4.47;;
28431;SDS011;15664;51.302;7.744;2022-10-17T02:46:51;8.43;;;4.40;;
28431;SDS011;15664;51.302;7.744;2022-10-17T02:49:23;12.93;;;4.73;;
28431;SDS011;15664;51.302;7.744;2022-10-17T02:54:40;10.45;;;4.65;;
28431;SDS011;15664;51.302;7.744;2022-10-17T02:57:52;8.98;;;4.50;;
28431;SDS011;15664;51.302;7.744;2022-10-17T03:00:02;9.65;;;4.20;;
28431;SDS011;15664;51.302;7.744;2022-10-17T03:02:37;10.37;;;4.10;;
28431;SDS011;15664;51.302;7.744;2022-10-17T03:05:05;9.18;;;4.25;;
28431;SDS011;15664;51.302;7.744;2022-10-17T03:07:30;9.63;;;4.85;;
28431;SDS011;15664;51.302;7.744;2022-10-17T03:09:56;10.33;;;5.07;;
28431;SDS011;15664;51.302;7.744;2022-10-17T03:12:21;10.00;;;4.37;;
28431;SDS011;15664;51.302;7.744;2022-10-17T03:14:46;11.47;;;4.80;;
28431;SDS011;15664;51.302;7.744;2022-10-17T03:17:12;10.00;;;4.23;;
28431;SDS011;15664;51.302;7.744;2022-10-17T03:19:37;9.70;;;4.78;;
28431;SDS011;15664;51.302;7.744;2022-10-17T03:22:02;8.90;;;4.17;;
28431;SDS011;15664;51.302;7.744;2022-10-17T03:24:29;11.80;;;4.43;;
28431;SDS011;15664;51.302;7.744;2022-10-17T03:26:54;10.85;;;4.53;;
28431;SDS011;15664;51.302;7.744;2022-10-17T03:29:20;11.30;;;4.50;;
28431;SDS011;15664;51.302;7.744;2022-10-17T03:31:45;8.48;;;3.90;;
28431;SDS011;15664;51.302;7.744;2022-10-17T03:34:11;9.53;;;4.33;;
28431;SDS011;15664;51.302;7.744;2022-10-17T03:36:36;7.90;;;4.47;;
28431;SDS011;15664;51.302;7.744;2022-10-17T03:39:02;8.75;;;4.55;;
28431;SDS011;15664;51.302;7.744;2022-10-17T03:41:27;9.50;;;4.50;;
28431;SDS011;15664;51.302;7.744;2022-10-17T03:43:53;10.00;;;4.57;;
28431;SDS011;15664;51.302;7.744;2022-10-17T03:46:18;9.25;;;3.97;;
28431;SDS011;15664;51.302;7.744;2022-10-17T03:48:44;10.20;;;4.40;;
28431;SDS011;15664;51.302;7.744;2022-10-17T03:51:09;10.70;;;4.50;;
28431;SDS011;15664;51.302;7.744;2022-10-17T03:53:58;10.70;;;4.68;;
28431;SDS011;15664;51.302;7.744;2022-10-17T03:56:23;10.20;;;4.00;;
28431;SDS011;15664;51.302;7.744;2022-10-17T03:59:11;11.18;;;4.82;;
28431;SDS011;15664;51.302;7.744;2022-10-17T04:01:38;10.05;;;4.63;;
28431;SDS011;15664;51.302;7.744;2022-10-17T04:04:03;11.23;;;4.70;;
28431;SDS011;15664;51.302;7.744;2022-10-17T04:06:32;10.40;;;4.55;;
28431;SDS011;15664;51.302;7.744;2022-10-17T04:08:58;8.90;;;4.70;;
28431;SDS011;15664;51.302;7.744;2022-10-17T04:11:37;8.50;;;4.10;;
28431;SDS011;15664;51.302;7.744;2022-10-17T04:14:02;9.18;;;4.22;;
28431;SDS011;15664;51.302;7.744;2022-10-17T04:16:28;11.57;;;4.73;;
28431;SDS011;15664;51.302;7.744;2022-10-17T04:18:58;10.52;;;4.50;;
28431;SDS011;15664;51.302;7.744;2022-10-17T04:21:28;10.15;;;4.97;;
28431;SDS011;15664;51.302;7.744;2022-10-17T04:23:55;9.75;;;4.88;;
28431;SDS011;15664;51.302;7.744;2022-10-17T04:26:37;12.05;;;5.88;;
28431;SDS011;15664;51.302;7.744;2022-10-17T04:29:03;9.77;;;4.87;;
28431;SDS011;15664;51.302;7.744;2022-10-17T04:31:28;11.20;;;4.73;;
28431;SDS011;15664;51.302;7.744;2022-10-17T04:34:10;13.02;;;5.32;;
28431;SDS011;15664;51.302;7.744;2022-10-17T04:36:38;9.68;;;5.53;;
28431;SDS011;15664;51.302;7.744;2022-10-17T04:39:04;10.17;;;5.30;;
28431;SDS011;15664;51.302;7.744;2022-10-17T04:41:30;13.27;;;6.15;;
28431;SDS011;15664;51.302;7.744;2022-10-17T04:43:55;12.50;;;5.63;;
28431;SDS011;15664;51.302;7.744;2022-10-17T04:46:22;13.47;;;6.67;;
28431;SDS011;15664;51.302;7.744;2022-10-17T04:48:47;11.32;;;5.65;;
28431;SDS011;15664;51.302;7.744;2022-10-17T04:51:14;12.97;;;6.03;;
28431;SDS011;15664;51.302;7.744;2022-10-17T04:54:00;13.38;;;5.82;;
28431;SDS011;15664;51.302;7.744;2022-10-17T04:56:26;16.83;;;7.57;;
28431;SDS011;15664;51.302;7.744;2022-10-17T04:58:51;12.50;;;5.47;;
28431;SDS011;15664;51.302;7.744;2022-10-17T05:01:18;14.48;;;5.20;;
28431;SDS011;15664;51.302;7.744;2022-10-17T05:03:49;14.90;;;5.40;;
28431;SDS011;15664;51.302;7.744;2022-10-17T05:06:17;9.47;;;5.40;;
28431;SDS011;15664;51.302;7.744;2022-10-17T05:08:54;13.57;;;5.22;;
28431;SDS011;15664;51.302;7.744;2022-10-17T05:11:21;10.90;;;5.10;;
28431;SDS011;15664;51.302;7.744;2022-10-17T05:13:51;10.15;;;5.45;;
28431;SDS011;15664;51.302;7.744;2022-10-17T05:16:17;9.48;;;5.43;;
28431;SDS011;15664;51.302;7.744;2022-10-17T05:18:43;10.27;;;5.13;;
28431;SDS011;15664;51.302;7.744;2022-10-17T05:21:09;15.00;;;5.17;;
28431;SDS011;15664;51.302;7.744;2022-10-17T05:23:34;7.90;;;4.60;;
28431;SDS011;15664;51.302;7.744;2022-10-17T05:25:59;10.20;;;4.68;;
28431;SDS011;15664;51.302;7.744;2022-10-17T05:28:25;10.13;;;5.00;;
28431;SDS011;15664;51.302;7.744;2022-10-17T05:30:53;9.82;;;4.65;;
28431;SDS011;15664;51.302;7.744;2022-10-17T05:33:18;10.40;;;4.47;;
28431;SDS011;15664;51.302;7.744;2022-10-17T05:35:44;7.67;;;4.30;;
28431;SDS011;15664;51.302;7.744;2022-10-17T05:38:09;10.40;;;4.90;;
28431;SDS011;15664;51.302;7.744;2022-10-17T05:40:36;9.25;;;4.95;;
28431;SDS011;15664;51.302;7.744;2022-10-17T05:43:02;8.68;;;4.43;;
28431;SDS011;15664;51.302;7.744;2022-10-17T05:45:29;10.30;;;4.73;;
28431;SDS011;15664;51.302;7.744;2022-10-17T05:47:55;9.30;;;5.20;;
28431;SDS011;15664;51.302;7.744;2022-10-17T05:50:21;10.27;;;4.70;;
28431;SDS011;15664;51.302;7.744;2022-10-17T05:53:03;11.13;;;5.10;;
28431;SDS011;15664;51.302;7.744;2022-10-17T05:55:31;9.32;;;4.85;;
28431;SDS011;15664;51.302;7.744;2022-10-17T05:57:58;10.27;;;5.00;;
28431;SDS011;15664;51.302;7.744;2022-10-17T06:00:27;12.48;;;4.68;;
28431;SDS011;15664;51.302;7.744;2022-10-17T06:02:56;12.57;;;5.18;;
28431;SDS011;15664;51.302;7.744;2022-10-17T06:05:22;11.37;;;5.10;;
28431;SDS011;15664;51.302;7.744;2022-10-17T06:07:48;10.20;;;4.57;;
28431;SDS011;15664;51.302;7.744;2022-10-17T06:10:16;9.50;;;5.30;;
28431;SDS011;15664;51.302;7.744;2022-10-17T06:12:42;11.60;;;5.20;;
28431;SDS011;15664;51.302;7.744;2022-10-17T06:15:08;10.87;;;5.07;;
28431;SDS011;15664;51.302;7.744;2022-10-17T06:17:36;10.82;;;4.65;;
28431;SDS011;15664;51.302;7.744;2022-10-17T06:20:02;10.02;;;5.32;;
28431;SDS011;15664;51.302;7.744;2022-10-17T06:22:27;12.13;;;5.00;;
28431;SDS011;15664;51.302;7.744;2022-10-17T06:24:54;10.38;;;5.07;;
28431;SDS011;15664;51.302;7.744;2022-10-17T06:27:21;10.93;;;5.07;;
28431;SDS011;15664;51.302;7.744;2022-10-17T06:29:46;8.63;;;5.23;;
28431;SDS011;15664;51.302;7.744;2022-10-17T06:32:12;10.20;;;5.00;;
28431;SDS011;15664;51.302;7.744;2022-10-17T06:34:38;9.40;;;4.83;;
28431;SDS011;15664;51.302;7.744;2022-10-17T06:37:04;11.43;;;5.00;;
28431;SDS011;15664;51.302;7.744;2022-10-17T06:39:30;12.23;;;4.33;;
28431;SDS011;15664;51.302;7.744;2022-10-17T06:42:08;11.23;;;4.65;;
28431;SDS011;15664;51.302;7.744;2022-10-17T06:44:42;13.68;;;5.20;;
28431;SDS011;15664;51.302;7.744;2022-10-17T06:47:17;8.68;;;4.25;;
28431;SDS011;15664;51.302;7.744;2022-10-17T06:49:42;14.27;;;5.10;;
28431;SDS011;15664;51.302;7.744;2022-10-17T06:52:31;11.38;;;4.15;;
28431;SDS011;15664;51.302;7.744;2022-10-17T06:55:19;12.88;;;4.70;;
28431;SDS011;15664;51.302;7.744;2022-10-17T06:58:10;8.50;;;4.13;;
28431;SDS011;15664;51.302;7.744;2022-10-17T07:00:58;11.32;;;4.47;;
28431;SDS011;15664;51.302;7.744;2022-10-17T07:03:29;9.50;;;4.97;;
28431;SDS011;15664;51.302;7.744;2022-10-17T07:05:55;7.25;;;4.05;;
28431;SDS011;15664;51.302;7.744;2022-10-17T07:08:21;9.95;;;4.20;;
28431;SDS011;15664;51.302;7.744;2022-10-17T07:10:47;7.90;;;4.07;;
28431;SDS011;15664;51.302;7.744;2022-10-17T07:13:12;8.57;;;4.30;;
28431;SDS011;15664;51.302;7.744;2022-10-17T07:15:38;8.73;;;4.03;;
28431;SDS011;15664;51.302;7.744;2022-10-17T07:18:04;7.80;;;3.85;;
28431;SDS011;15664;51.302;7.744;2022-10-17T07:20:30;9.60;;;3.83;;
28431;SDS011;15664;51.302;7.744;2022-10-17T07:22:55;8.17;;;4.07;;
28431;SDS011;15664;51.302;7.744;2022-10-17T07:25:21;7.32;;;3.47;;
28431;SDS011;15664;51.302;7.744;2022-10-17T07:27:50;8.10;;;3.70;;
28431;SDS011;15664;51.302;7.744;2022-10-17T07:30:17;9.90;;;3.88;;
28431;SDS011;15664;51.302;7.744;2022-10-17T07:32:52;10.05;;;3.80;;
28431;SDS011;15664;51.302;7.744;2022-10-17T07:35:18;11.20;;;4.00;;
28431;SDS011;15664;51.302;7.744;2022-10-17T07:37:44;9.90;;;3.50;;
28431;SDS011;15664;51.302;7.744;2022-10-17T07:40:09;7.10;;;3.58;;
28431;SDS011;15664;51.302;7.744;2022-10-17T07:42:35;7.25;;;3.47;;
28431;SDS011;15664;51.302;7.744;2022-10-17T07:45:02;7.32;;;3.83;;
28431;SDS011;15664;51.302;7.744;2022-10-17T07:47:30;6.80;;;3.60;;
28431;SDS011;15664;51.302;7.744;2022-10-17T07:49:58;5.93;;;3.42;;
28431;SDS011;15664;51.302;7.744;2022-10-17T07:52:23;6.80;;;3.10;;
28431;SDS011;15664;51.302;7.744;2022-10-17T07:54:48;6.03;;;3.40;;
28431;SDS011;15664;51.302;7.744;2022-10-17T07:57:14;7.10;;;3.50;;
28431;SDS011;15664;51.302;7.744;2022-10-17T07:59:39;8.33;;;3.40;;
28431;SDS011;15664;51.302;7.744;2022-10-17T08:02:04;7.22;;;3.40;;
28431;SDS011;15664;51.302;7.744;2022-10-17T08:04:32;7.45;;;3.63;;
28431;SDS011;15664;51.302;7.744;2022-10-17T08:06:58;8.35;;;3.33;;
28431;SDS011;15664;51.302;7.744;2022-10-17T08:09:24;6.95;;;3.35;;
28431;SDS011;15664;51.302;7.744;2022-10-17T08:11:49;6.77;;;3.03;;
28431;SDS011;15664;51.302;7.744;2022-10-17T08:14:15;8.23;;;3.50;;
28431;SDS011;15664;51.302;7.744;2022-10-17T08:16:41;9.37;;;3.10;;
28431;SDS011;15664;51.302;7.744;2022-10-17T08:19:06;9.13;;;3.50;;
28431;SDS011;15664;51.302;7.744;2022-10-17T08:21:33;6.25;;;3.33;;
28431;SDS011;15664;51.302;7.744;2022-10-17T08:23:58;8.23;;;3.38;;
28431;SDS011;15664;51.302;7.744;2022-10-17T08:26:24;7.38;;;3.10;;
28431;SDS011;15664;51.302;7.744;2022-10-17T08:28:49;7.20;;;3.40;;
28431;SDS011;15664;51.302;7.744;2022-10-17T08:31:16;6.97;;;3.23;;
28431;SDS011;15664;51.302;7.744;2022-10-17T08:33:43;9.38;;;3.30;;
28431;SDS011;15664;51.302;7.744;2022-10-17T08:36:09;5.90;;;3.10;;
28431;SDS011;15664;51.302;7.744;2022-10-17T08:38:36;7.20;;;3.10;;
28431;SDS011;15664;51.302;7.744;2022-10-17T08:41:05;7.88;;;3.10;;
28431;SDS011;15664;51.302;7.744;2022-10-17T08:46:35;7.30;;;3.13;;
28431;SDS011;15664;51.302;7.744;2022-10-17T08:49:05;7.75;;;3.47;;
28431;SDS011;15664;51.302;7.744;2022-10-17T08:51:38;7.03;;;3.10;;
28431;SDS011;15664;51.302;7.744;2022-10-17T08:54:17;6.88;;;3.22;;
28431;SDS011;15664;51.302;7.744;2022-10-17T08:56:44;11.30;;;3.30;;
28431;SDS011;15664;51.302;7.744;2022-10-17T08:59:15;6.18;;;2.83;;
28431;SDS011;15664;51.302;7.744;2022-10-17T09:01:48;6.13;;;3.13;;
28431;SDS011;15664;51.302;7.744;2022-10-17T09:07:10;9.30;;;3.35;;
28431;SDS011;15664;51.302;7.744;2022-10-17T09:10:08;6.88;;;3.00;;
28431;SDS011;15664;51.302;7.744;2022-10-17T09:16:07;9.77;;;3.28;;
28431;SDS011;15664;51.302;7.744;2022-10-17T09:19:07;6.82;;;3.10;;
28431;SDS011;15664;51.302;7.744;2022-10-17T09:21:41;6.80;;;3.00;;
28431;SDS011;15664;51.302;7.744;2022-10-17T09:24:27;6.35;;;3.00;;
28431;SDS011;15664;51.302;7.744;2022-10-17T09:27:03;10.20;;;3.15;;
28431;SDS011;15664;51.302;7.744;2022-10-17T09:29:29;7.60;;;2.95;;
28431;SDS011;15664;51.302;7.744;2022-10-17T09:32:02;6.20;;;2.93;;
28431;SDS011;15664;51.302;7.744;2022-10-17T09:34:35;7.32;;;3.30;;
28431;SDS011;15664;51.302;7.744;2022-10-17T09:37:00;9.93;;;3.30;;
28431;SDS011;15664;51.302;7.744;2022-10-17T09:39:26;7.93;;;3.10;;
28431;SDS011;15664;51.302;7.744;2022-10-17T09:41:56;6.20;;;2.83;;
28431;SDS011;15664;51.302;7.744;2022-10-17T09:49:43;10.23;;;3.00;;
28431;SDS011;15664;51.302;7.744;2022-10-17T09:52:44;7.28;;;3.20;;
28431;SDS011;15664;51.302;7.744;2022-10-17T09:58:02;5.73;;;2.90;;
28431;SDS011;15664;51.302;7.744;2022-10-17T10:00:30;7.93;;;3.20;;
28431;SDS011;15664;51.302;7.744;2022-10-17T10:03:07;6.28;;;3.05;;
28431;SDS011;15664;51.302;7.744;2022-10-17T10:05:40;8.98;;;3.25;;
28431;SDS011;15664;51.302;7.744;2022-10-17T10:08:13;7.80;;;3.42;;
28431;SDS011;15664;51.302;7.744;2022-10-17T10:10:41;7.67;;;2.77;;
28431;SDS011;15664;51.302;7.744;2022-10-17T10:15:46;7.60;;;2.72;;
28431;SDS011;15664;51.302;7.744;2022-10-17T10:23:35;11.03;;;3.03;;
28431;SDS011;15664;51.302;7.744;2022-10-17T10:26:11;7.78;;;3.10;;
28431;SDS011;15664;51.302;7.744;2022-10-17T10:28:48;5.82;;;3.10;;
28431;SDS011;15664;51.302;7.744;2022-10-17T10:31:16;6.22;;;2.83;;
28431;SDS011;15664;51.302;7.744;2022-10-17T10:33:51;4.90;;;2.95;;
28431;SDS011;15664;51.302;7.744;2022-10-17T10:36:16;5.50;;;2.87;;
28431;SDS011;15664;51.302;7.744;2022-10-17T10:38:49;10.10;;;3.40;;
28431;SDS011;15664;51.302;7.744;2022-10-17T10:41:17;5.90;;;3.40;;
28431;SDS011;15664;51.302;7.744;2022-10-17T10:43:44;7.43;;;3.00;;
28431;SDS011;15664;51.302;7.744;2022-10-17T10:46:30;6.32;;;3.03;;
28431;SDS011;15664;51.302;7.744;2022-10-17T10:48:56;10.03;;;3.63;;
28431;SDS011;15664;51.302;7.744;2022-10-17T10:51:31;7.40;;;3.38;;
28431;SDS011;15664;51.302;7.744;2022-10-17T10:54:10;9.27;;;3.58;;
28431;SDS011;15664;51.302;7.744;2022-10-17T10:56:43;8.30;;;3.00;;
28431;SDS011;15664;51.302;7.744;2022-10-17T11:06:52;7.00;;;3.30;;
28431;SDS011;15664;51.302;7.744;2022-10-17T11:09:33;12.30;;;3.72;;
28431;SDS011;15664;51.302;7.744;2022-10-17T11:12:10;12.73;;;4.57;;
28431;SDS011;15664;51.302;7.744;2022-10-17T11:14:44;8.43;;;3.15;;
28431;SDS011;15664;51.302;7.744;2022-10-17T11:17:21;7.47;;;3.60;;
28431;SDS011;15664;51.302;7.744;2022-10-17T11:22:41;6.78;;;3.45;;
28431;SDS011;15664;51.302;7.744;2022-10-17T11:28:00;6.53;;;3.30;;
28431;SDS011;15664;51.302;7.744;2022-10-17T11:30:28;9.00;;;3.37;;
28431;SDS011;15664;51.302;7.744;2022-10-17T11:33:02;10.73;;;4.00;;
28431;SDS011;15664;51.302;7.744;2022-10-17T11:35:31;7.22;;;3.30;;
28431;SDS011;15664;51.302;7.744;2022-10-17T11:38:10;10.20;;;3.40;;
28431;SDS011;15664;51.302;7.744;2022-10-17T11:40:46;8.07;;;3.50;;
28431;SDS011;15664;51.302;7.744;2022-10-17T11:43:31;7.07;;;3.10;;
28431;SDS011;15664;51.302;7.744;2022-10-17T11:46:02;7.80;;;3.38;;
28431;SDS011;15664;51.302;7.744;2022-10-17T11:48:38;7.38;;;3.25;;
28431;SDS011;15664;51.302;7.744;2022-10-17T11:51:09;6.22;;;2.92;;
28431;SDS011;15664;51.302;7.744;2022-10-17T11:53:42;7.85;;;3.72;;
28431;SDS011;15664;51.302;7.744;2022-10-17T11:56:25;8.23;;;3.37;;
28431;SDS011;15664;51.302;7.744;2022-10-17T11:59:28;9.45;;;3.95;;
28431;SDS011;15664;51.302;7.744;2022-10-17T12:02:11;8.60;;;3.60;;
28431;SDS011;15664;51.302;7.744;2022-10-17T12:04:47;7.55;;;3.45;;
28431;SDS011;15664;51.302;7.744;2022-10-17T12:07:33;7.22;;;3.70;;
28431;SDS011;15664;51.302;7.744;2022-10-17T12:10:23;7.77;;;3.50;;
28431;SDS011;15664;51.302;7.744;2022-10-17T12:12:51;6.78;;;3.60;;
28431;SDS011;15664;51.302;7.744;2022-10-17T12:17:55;6.60;;;3.40;;
28431;SDS011;15664;51.302;7.744;2022-10-17T12:20:24;7.75;;;3.97;;
28431;SDS011;15664;51.302;7.744;2022-10-17T12:25:35;9.73;;;3.72;;
28431;SDS011;15664;51.302;7.744;2022-10-17T12:28:13;11.33;;;3.33;;
28431;SDS011;15664;51.302;7.744;2022-10-17T12:31:21;9.00;;;3.67;;
28431;SDS011;15664;51.302;7.744;2022-10-17T12:42:21;12.63;;;3.67;;
28431;SDS011;15664;51.302;7.744;2022-10-17T12:46:46;6.97;;;3.70;;
28431;SDS011;15664;51.302;7.744;2022-10-17T12:49:35;6.50;;;3.33;;
28431;SDS011;15664;51.302;7.744;2022-10-17T13:03:01;7.07;;;3.50;;
28431;SDS011;15664;51.302;7.744;2022-10-17T13:05:55;8.43;;;3.20;;
28431;SDS011;15664;51.302;7.744;2022-10-17T13:08:24;9.68;;;3.55;;
28431;SDS011;15664;51.302;7.744;2022-10-17T13:10:53;8.87;;;4.50;;
28431;SDS011;15664;51.302;7.744;2022-10-17T13:13:22;10.20;;;3.38;;
28431;SDS011;15664;51.302;7.744;2022-10-17T13:15:59;6.25;;;3.35;;
28431;SDS011;15664;51.302;7.744;2022-10-17T13:18:26;6.83;;;3.30;;
28431;SDS011;15664;51.302;7.744;2022-10-17T13:21:35;6.50;;;3.40;;
28431;SDS011;15664;51.302;7.744;2022-10-17T13:23:41;8.70;;;3.70;;
28431;SDS011;15664;51.302;7.744;2022-10-17T13:26:16;7.90;;;3.73;;
28431;SDS011;15664;51.302;7.744;2022-10-17T13:29:02;7.90;;;3.13;;
28431;SDS011;15664;51.302;7.744;2022-10-17T13:31:32;6.70;;;3.83;;
28431;SDS011;15664;51.302;7.744;2022-10-17T13:33:59;9.23;;;3.78;;
28431;SDS011;15664;51.302;7.744;2022-10-17T13:36:27;8.68;;;3.13;;
28431;SDS011;15664;51.302;7.744;2022-10-17T13:38:54;8.27;;;3.05;;
28431;SDS011;15664;51.302;7.744;2022-10-17T13:41:24;8.98;;;3.95;;
28431;SDS011;15664;51.302;7.744;2022-10-17T13:43:52;8.18;;;3.25;;
28431;SDS011;15664;51.302;7.744;2022-10-17T13:46:26;8.13;;;3.28;;
28431;SDS011;15664;51.302;7.744;2022-10-17T13:48:54;8.18;;;3.20;;
28431;SDS011;15664;51.302;7.744;2022-10-17T13:51:20;10.55;;;3.80;;
28431;SDS011;15664;51.302;7.744;2022-10-17T13:53:47;7.27;;;3.80;;
28431;SDS011;15664;51.302;7.744;2022-10-17T13:58:47;7.33;;;3.20;;
28431;SDS011;15664;51.302;7.744;2022-10-17T14:01:14;9.90;;;3.80;;
28431;SDS011;15664;51.302;7.744;2022-10-17T14:03:41;7.45;;;3.80;;
28431;SDS011;15664;51.302;7.744;2022-10-17T14:06:23;7.72;;;3.65;;
28431;SDS011;15664;51.302;7.744;2022-10-17T14:08:58;7.78;;;3.22;;
28431;SDS011;15664;51.302;7.744;2022-10-17T14:11:36;7.43;;;3.33;;
28431;SDS011;15664;51.302;7.744;2022-10-17T14:14:06;11.77;;;3.38;;
28431;SDS011;15664;51.302;7.744;2022-10-17T14:16:41;9.55;;;3.42;;
28431;SDS011;15664;51.302;7.744;2022-10-17T14:19:26;10.13;;;3.88;;
28431;SDS011;15664;51.302;7.744;2022-10-17T14:21:53;8.40;;;3.75;;
28431;SDS011;15664;51.302;7.744;2022-10-17T14:26:56;8.80;;;3.90;;
28431;SDS011;15664;51.302;7.744;2022-10-17T14:29:30;8.82;;;3.58;;
28431;SDS011;15664;51.302;7.744;2022-10-17T14:31:57;7.90;;;3.55;;
28431;SDS011;15664;51.302;7.744;2022-10-17T14:34:36;9.30;;;3.78;;
28431;SDS011;15664;51.302;7.744;2022-10-17T14:37:24;10.35;;;4.00;;
28431;SDS011;15664;51.302;7.744;2022-10-17T14:39:58;8.33;;;3.70;;
28431;SDS011;15664;51.302;7.744;2022-10-17T14:42:24;8.10;;;3.30;;
28431;SDS011;15664;51.302;7.744;2022-10-17T14:44:51;6.97;;;3.55;;
28431;SDS011;15664;51.302;7.744;2022-10-17T14:47:23;7.45;;;3.38;;
28431;SDS011;15664;51.302;7.744;2022-10-17T14:50:01;11.00;;;4.50;;
28431;SDS011;15664;51.302;7.744;2022-10-17T14:52:31;8.27;;;3.40;;
28431;SDS011;15664;51.302;7.744;2022-10-17T14:54:58;7.18;;;3.40;;
28431;SDS011;15664;51.302;7.744;2022-10-17T14:57:40;8.32;;;3.70;;
28431;SDS011;15664;51.302;7.744;2022-10-17T15:00:12;10.55;;;3.35;;
28431;SDS011;15664;51.302;7.744;2022-10-17T15:02:38;8.20;;;3.70;;
28431;SDS011;15664;51.302;7.744;2022-10-17T15:05:03;9.87;;;3.50;;
28431;SDS011;15664;51.302;7.744;2022-10-17T15:07:29;10.00;;;3.40;;
28431;SDS011;15664;51.302;7.744;2022-10-17T15:09:54;9.40;;;3.60;;
28431;SDS011;15664;51.302;7.744;2022-10-17T15:12:21;7.77;;;3.37;;
28431;SDS011;15664;51.302;7.744;2022-10-17T15:14:47;8.32;;;3.40;;
28431;SDS011;15664;51.302;7.744;2022-10-17T15:17:14;8.03;;;3.30;;
28431;SDS011;15664;51.302;7.744;2022-10-17T15:19:45;10.73;;;3.58;;
28431;SDS011;15664;51.302;7.744;2022-10-17T15:22:10;7.97;;;3.40;;
28431;SDS011;15664;51.302;7.744;2022-10-17T15:24:36;9.57;;;3.67;;
28431;SDS011;15664;51.302;7.744;2022-10-17T15:27:01;7.50;;;3.43;;
28431;SDS011;15664;51.302;7.744;2022-10-17T15:29:26;8.13;;;3.30;;
28431;SDS011;15664;51.302;7.744;2022-10-17T15:31:52;10.97;;;3.77;;
28431;SDS011;15664;51.302;7.744;2022-10-17T15:34:17;7.28;;;3.55;;
28431;SDS011;15664;51.302;7.744;2022-10-17T15:36:47;10.63;;;4.00;;
28431;SDS011;15664;51.302;7.744;2022-10-17T15:39:14;8.57;;;3.70;;
28431;SDS011;15664;51.302;7.744;2022-10-17T15:41:39;9.27;;;3.50;;
28431;SDS011;15664;51.302;7.744;2022-10-17T15:44:05;9.30;;;4.10;;
28431;SDS011;15664;51.302;7.744;2022-10-17T15:46:33;10.67;;;4.37;;
28431;SDS011;15664;51.302;7.744;2022-10-17T15:49:04;11.07;;;3.90;;
28431;SDS011;15664;51.302;7.744;2022-10-17T15:51:33;9.93;;;3.50;;
28431;SDS011;15664;51.302;7.744;2022-10-17T15:53:58;6.30;;;3.30;;
28431;SDS011;15664;51.302;7.744;2022-10-17T15:56:58;9.77;;;3.55;;
28431;SDS011;15664;51.302;7.744;2022-10-17T15:59:19;10.23;;;3.13;;
28431;SDS011;15664;51.302;7.744;2022-10-17T16:01:49;10.20;;;4.05;;
28431;SDS011;15664;51.302;7.744;2022-10-17T16:04:15;7.53;;;3.90;;
28431;SDS011;15664;51.302;7.744;2022-10-17T16:06:41;11.00;;;3.75;;
28431;SDS011;15664;51.302;7.744;2022-10-17T16:09:07;11.13;;;3.45;;
28431;SDS011;15664;51.302;7.744;2022-10-17T16:11:36;8.63;;;3.63;;
28431;SDS011;15664;51.302;7.744;2022-10-17T16:14:05;7.23;;;3.57;;
28431;SDS011;15664;51.302;7.744;2022-10-17T16:16:32;8.95;;;3.97;;
28431;SDS011;15664;51.302;7.744;2022-10-17T16:18:58;8.85;;;3.55;;
28431;SDS011;15664;51.302;7.744;2022-10-17T16:21:24;15.33;;;4.40;;
28431;SDS011;15664;51.302;7.744;2022-10-17T16:23:51;11.73;;;3.85;;
28431;SDS011;15664;51.302;7.744;2022-10-17T16:26:17;11.60;;;3.67;;
28431;SDS011;15664;51.302;7.744;2022-10-17T16:28:43;6.80;;;3.70;;
28431;SDS011;15664;51.302;7.744;2022-10-17T16:31:42;8.77;;;3.87;;
28431;SDS011;15664;51.302;7.744;2022-10-17T16:34:03;7.65;;;3.70;;